This is the latest recevied weather packets stored in our database for station/object WW1TA. If no packets are shown the sender has not sent any weather packets the latest 10 day(s).
| Time | Temp. | Humidity | Pressure | Rain* | Wind** | Luminosity | Snow |
|---|---|---|---|---|---|---|---|
| 1777558768 | 20° C | 92% | 1011.6 hPa | 0 mm | - | 91 W/m² | - |
| 1777558464 | 20° C | 92% | 1011.4 hPa | 0 mm | - | 100 W/m² | - |
| 1777558161 | 20° C | 92% | 1011.5 hPa | 0 mm | - | 104 W/m² | - |
| 1777556642 | 20.56° C | 92% | 1011.6 hPa | 0 mm | - | 186 W/m² | - |
| 1777555425 | 20° C | 95% | 1011.7 hPa | 0.51 mm | - | 180 W/m² | - |
| 1777551788 | 20.56° C | 93% | 1011.3 hPa | 0 mm | - | 12 W/m² | - |
| 1777550271 | 21.11° C | 92% | 1010.1 hPa | 0.51 mm | - | 12 W/m² | - |
| 1777549665 | 21.67° C | 91% | 1010.1 hPa | 1.27 mm | - | 2 W/m² | - |
| 1777549058 | 21.67° C | 91% | 1009.7 hPa | 0 mm | - | 2 W/m² | - |
| 1777547844 | 21.67° C | 91% | 1010.1 hPa | 0 mm | - | 9 W/m² | - |
| 1777546935 | 21.67° C | 90% | 1009.9 hPa | 0 mm | - | 11 W/m² | - |
| 1777546632 | 21.67° C | 90% | 1009.6 hPa | 0 mm | - | 9 W/m² | - |
| 1777546328 | 21.67° C | 91% | 1010.2 hPa | 0 mm | - | 1 W/m² | - |
| 1777546026 | 21.67° C | 90% | 1010 hPa | 0 mm | - | 0 W/m² | - |
| 1777545721 | 21.67° C | 90% | 1009.8 hPa | 0 mm | - | 0 W/m² | - |
| 1777545419 | 21.67° C | 89% | 1010 hPa | 0 mm | - | 0 W/m² | - |
| 1777545115 | 21.67° C | 89% | 1009.6 hPa | 0 mm | - | 0 W/m² | - |
| 1777544813 | 21.67° C | 90% | 1009.5 hPa | 0 mm | - | 0 W/m² | - |
| 1777544508 | 21.67° C | 90% | 1009.5 hPa | 0 mm | - | 0 W/m² | - |
| 1777544205 | 21.67° C | 90% | 1009.2 hPa | 0 mm | - | 0 W/m² | - |
| 1777543902 | 21.67° C | 90% | 1009.2 hPa | 0 mm | - | 0 W/m² | - |
| 1777543599 | 21.67° C | 90% | 1009.2 hPa | 0 mm | - | 0 W/m² | - |
| 1777542991 | 21.11° C | 92% | 1008.9 hPa | 0 mm | - | 0 W/m² | - |
| 1777542687 | 21.11° C | 92% | 1009.3 hPa | 0 mm | - | 0 W/m² | - |
| 1777542384 | 21.11° C | 92% | 1009.4 hPa | 0 mm | - | 0 W/m² | - |
* Rain latest hour (hover to see other rain measurements)
** Current wind speed in m/s (hover to see current wind gust speed)